sensor_id;sensor_type;location;lat;lon;timestamp;temperature;humidity
21778;DHT22;11050;52.222;20.916;2022-10-31T00:00:28;9.00;99.90
21778;DHT22;11050;52.222;20.916;2022-10-31T00:02:54;9.00;99.90
21778;DHT22;11050;52.222;20.916;2022-10-31T00:05:21;9.00;99.90
21778;DHT22;11050;52.222;20.916;2022-10-31T00:07:46;9.00;99.90
21778;DHT22;11050;52.222;20.916;2022-10-31T00:10:12;9.00;99.90
21778;DHT22;11050;52.222;20.916;2022-10-31T00:12:38;9.00;99.90
21778;DHT22;11050;52.222;20.916;2022-10-31T00:15:04;9.00;99.90
21778;DHT22;11050;52.222;20.916;2022-10-31T00:17:30;9.00;99.90
21778;DHT22;11050;52.222;20.916;2022-10-31T00:19:56;8.90;99.90
21778;DHT22;11050;52.222;20.916;2022-10-31T00:22:22;8.90;99.90
21778;DHT22;11050;52.222;20.916;2022-10-31T00:24:47;8.90;99.90
21778;DHT22;11050;52.222;20.916;2022-10-31T00:27:13;8.90;99.90
21778;DHT22;11050;52.222;20.916;2022-10-31T00:29:39;8.90;99.90
21778;DHT22;11050;52.222;20.916;2022-10-31T00:32:05;8.90;99.90
21778;DHT22;11050;52.222;20.916;2022-10-31T00:34:30;8.80;99.90
21778;DHT22;11050;52.222;20.916;2022-10-31T00:36:56;8.80;99.90
21778;DHT22;11050;52.222;20.916;2022-10-31T00:39:22;8.80;99.90
21778;DHT22;11050;52.222;20.916;2022-10-31T00:41:48;8.80;99.90
21778;DHT22;11050;52.222;20.916;2022-10-31T00:44:13;8.70;99.90
21778;DHT22;11050;52.222;20.916;2022-10-31T00:46:39;8.70;99.90
21778;DHT22;11050;52.222;20.916;2022-10-31T00:49:05;8.80;99.90
21778;DHT22;11050;52.222;20.916;2022-10-31T00:51:31;8.80;99.90
21778;DHT22;11050;52.222;20.916;2022-10-31T00:53:56;8.80;99.90
21778;DHT22;11050;52.222;20.916;2022-10-31T00:56:22;8.80;99.90
21778;DHT22;11050;52.222;20.916;2022-10-31T00:58:48;8.80;99.90
21778;DHT22;11050;52.222;20.916;2022-10-31T01:01:13;8.80;99.90
21778;DHT22;11050;52.222;20.916;2022-10-31T01:03:39;8.80;99.90
21778;DHT22;11050;52.222;20.916;2022-10-31T01:06:11;8.80;99.90
21778;DHT22;11050;52.222;20.916;2022-10-31T01:08:38;8.80;99.90
21778;DHT22;11050;52.222;20.916;2022-10-31T01:13:33;8.80;99.90
21778;DHT22;11050;52.222;20.916;2022-10-31T01:16:00;8.80;99.90
21778;DHT22;11050;52.222;20.916;2022-10-31T01:18:27;8.80;99.90
21778;DHT22;11050;52.222;20.916;2022-10-31T01:23:33;8.80;99.90
21778;DHT22;11050;52.222;20.916;2022-10-31T01:26:14;8.80;99.90
21778;DHT22;11050;52.222;20.916;2022-10-31T01:31:14;8.80;99.90
21778;DHT22;11050;52.222;20.916;2022-10-31T01:33:42;8.80;99.90
21778;DHT22;11050;52.222;20.916;2022-10-31T01:36:23;8.70;99.90
21778;DHT22;11050;52.222;20.916;2022-10-31T01:38:57;8.70;99.90
21778;DHT22;11050;52.222;20.916;2022-10-31T01:41:28;8.70;99.90
21778;DHT22;11050;52.222;20.916;2022-10-31T01:46:59;8.70;99.90
21778;DHT22;11050;52.222;20.916;2022-10-31T01:52:40;8.70;99.90
21778;DHT22;11050;52.222;20.916;2022-10-31T01:55:35;8.70;99.90
21778;DHT22;11050;52.222;20.916;2022-10-31T01:58:15;8.60;99.90
21778;DHT22;11050;52.222;20.916;2022-10-31T02:00:49;8.60;99.90
21778;DHT22;11050;52.222;20.916;2022-10-31T02:03:20;8.60;99.90
21778;DHT22;11050;52.222;20.916;2022-10-31T02:05:48;8.60;99.90
21778;DHT22;11050;52.222;20.916;2022-10-31T02:08:34;8.60;99.90
21778;DHT22;11050;52.222;20.916;2022-10-31T02:11:02;8.60;99.90
21778;DHT22;11050;52.222;20.916;2022-10-31T02:13:29;8.60;99.90
21778;DHT22;11050;52.222;20.916;2022-10-31T02:15:57;8.60;99.90
21778;DHT22;11050;52.222;20.916;2022-10-31T02:18:26;8.60;99.90
21778;DHT22;11050;52.222;20.916;2022-10-31T02:37:38;8.60;99.90
21778;DHT22;11050;52.222;20.916;2022-10-31T02:40:30;8.60;99.90
21778;DHT22;11050;52.222;20.916;2022-10-31T02:46:11;8.50;99.90
21778;DHT22;11050;52.222;20.916;2022-10-31T02:48:45;8.50;99.90
21778;DHT22;11050;52.222;20.916;2022-10-31T02:51:13;8.50;99.90
21778;DHT22;11050;52.222;20.916;2022-10-31T02:53:40;8.50;99.90
21778;DHT22;11050;52.222;20.916;2022-10-31T02:58:38;8.50;99.90
21778;DHT22;11050;52.222;20.916;2022-10-31T03:09:11;8.40;99.90
21778;DHT22;11050;52.222;20.916;2022-10-31T03:12:08;8.40;99.90
21778;DHT22;11050;52.222;20.916;2022-10-31T03:17:27;8.40;99.90
21778;DHT22;11050;52.222;20.916;2022-10-31T03:20:04;8.40;99.90
21778;DHT22;11050;52.222;20.916;2022-10-31T03:22:35;8.40;99.90
21778;DHT22;11050;52.222;20.916;2022-10-31T03:25:05;8.40;99.90
21778;DHT22;11050;52.222;20.916;2022-10-31T03:27:34;8.50;99.90
21778;DHT22;11050;52.222;20.916;2022-10-31T03:30:03;8.50;99.90
21778;DHT22;11050;52.222;20.916;2022-10-31T03:32:43;8.50;99.90
21778;DHT22;11050;52.222;20.916;2022-10-31T03:35:15;8.50;99.90
21778;DHT22;11050;52.222;20.916;2022-10-31T03:37:45;8.50;99.90
21778;DHT22;11050;52.222;20.916;2022-10-31T03:40:15;8.50;99.90
21778;DHT22;11050;52.222;20.916;2022-10-31T03:42:49;8.40;99.90
21778;DHT22;11050;52.222;20.916;2022-10-31T03:45:25;8.40;99.90
21778;DHT22;11050;52.222;20.916;2022-10-31T03:47:54;8.40;99.90
21778;DHT22;11050;52.222;20.916;2022-10-31T03:50:24;8.40;99.90
21778;DHT22;11050;52.222;20.916;2022-10-31T03:53:22;8.40;99.90
21778;DHT22;11050;52.222;20.916;2022-10-31T03:55:58;8.40;99.90
21778;DHT22;11050;52.222;20.916;2022-10-31T03:58:34;8.30;99.90
21778;DHT22;11050;52.222;20.916;2022-10-31T04:01:07;8.40;99.90
21778;DHT22;11050;52.222;20.916;2022-10-31T04:03:39;8.30;99.90
21778;DHT22;11050;52.222;20.916;2022-10-31T04:06:11;8.30;99.90
21778;DHT22;11050;52.222;20.916;2022-10-31T04:08:44;8.30;99.90
21778;DHT22;11050;52.222;20.916;2022-10-31T04:11:16;8.30;99.90
21778;DHT22;11050;52.222;20.916;2022-10-31T04:13:47;8.30;99.90
21778;DHT22;11050;52.222;20.916;2022-10-31T04:16:15;8.30;99.90
21778;DHT22;11050;52.222;20.916;2022-10-31T04:18:42;8.30;99.90
21778;DHT22;11050;52.222;20.916;2022-10-31T04:21:08;8.30;99.90
21778;DHT22;11050;52.222;20.916;2022-10-31T04:23:35;8.30;99.90
21778;DHT22;11050;52.222;20.916;2022-10-31T04:26:02;8.20;99.90
21778;DHT22;11050;52.222;20.916;2022-10-31T04:28:28;8.20;99.90
21778;DHT22;11050;52.222;20.916;2022-10-31T04:30:54;8.20;99.90
21778;DHT22;11050;52.222;20.916;2022-10-31T04:33:20;8.20;99.90
21778;DHT22;11050;52.222;20.916;2022-10-31T04:35:46;8.20;99.90
21778;DHT22;11050;52.222;20.916;2022-10-31T04:38:12;8.20;99.90
21778;DHT22;11050;52.222;20.916;2022-10-31T04:40:38;8.20;99.90
21778;DHT22;11050;52.222;20.916;2022-10-31T04:43:04;8.20;99.90
21778;DHT22;11050;52.222;20.916;2022-10-31T04:45:29;8.20;99.90
21778;DHT22;11050;52.222;20.916;2022-10-31T04:47:55;8.20;99.90
21778;DHT22;11050;52.222;20.916;2022-10-31T04:50:21;8.20;99.90
21778;DHT22;11050;52.222;20.916;2022-10-31T04:52:47;8.20;99.90
21778;DHT22;11050;52.222;20.916;2022-10-31T04:55:14;8.20;99.90
21778;DHT22;11050;52.222;20.916;2022-10-31T04:57:47;8.20;99.90
21778;DHT22;11050;52.222;20.916;2022-10-31T05:00:16;8.20;99.90
21778;DHT22;11050;52.222;20.916;2022-10-31T05:03:01;8.10;99.90
21778;DHT22;11050;52.222;20.916;2022-10-31T05:05:29;8.20;99.90
21778;DHT22;11050;52.222;20.916;2022-10-31T05:07:56;8.20;99.90
21778;DHT22;11050;52.222;20.916;2022-10-31T05:10:27;8.20;99.90
21778;DHT22;11050;52.222;20.916;2022-10-31T05:12:57;8.20;99.90
21778;DHT22;11050;52.222;20.916;2022-10-31T05:15:26;8.20;99.90
21778;DHT22;11050;52.222;20.916;2022-10-31T05:17:53;8.20;99.90
21778;DHT22;11050;52.222;20.916;2022-10-31T05:20:21;8.20;99.90
21778;DHT22;11050;52.222;20.916;2022-10-31T05:22:50;8.20;99.90
21778;DHT22;11050;52.222;20.916;2022-10-31T05:25:19;8.20;99.90
21778;DHT22;11050;52.222;20.916;2022-10-31T05:27:48;8.20;99.90
21778;DHT22;11050;52.222;20.916;2022-10-31T05:30:18;8.20;99.90
21778;DHT22;11050;52.222;20.916;2022-10-31T05:32:48;8.20;99.90
21778;DHT22;11050;52.222;20.916;2022-10-31T05:35:20;8.20;99.90
21778;DHT22;11050;52.222;20.916;2022-10-31T05:37:47;8.20;99.90
21778;DHT22;11050;52.222;20.916;2022-10-31T05:40:15;8.20;99.90
21778;DHT22;11050;52.222;20.916;2022-10-31T05:42:43;8.30;99.90
21778;DHT22;11050;52.222;20.916;2022-10-31T05:45:12;8.30;99.90
21778;DHT22;11050;52.222;20.916;2022-10-31T05:47:41;8.30;99.90
21778;DHT22;11050;52.222;20.916;2022-10-31T05:50:08;8.30;99.90
21778;DHT22;11050;52.222;20.916;2022-10-31T05:52:35;8.30;99.90
21778;DHT22;11050;52.222;20.916;2022-10-31T05:55:01;8.30;99.90
21778;DHT22;11050;52.222;20.916;2022-10-31T05:57:28;8.30;99.90
21778;DHT22;11050;52.222;20.916;2022-10-31T05:59:54;8.40;99.90
21778;DHT22;11050;52.222;20.916;2022-10-31T06:02:21;8.30;99.90
21778;DHT22;11050;52.222;20.916;2022-10-31T06:04:47;8.40;99.90
21778;DHT22;11050;52.222;20.916;2022-10-31T06:07:13;8.40;99.90
21778;DHT22;11050;52.222;20.916;2022-10-31T06:09:39;8.40;99.90
21778;DHT22;11050;52.222;20.916;2022-10-31T06:12:05;8.50;99.90
21778;DHT22;11050;52.222;20.916;2022-10-31T06:14:31;8.60;99.90
21778;DHT22;11050;52.222;20.916;2022-10-31T06:16:57;8.60;99.90
21778;DHT22;11050;52.222;20.916;2022-10-31T06:19:22;8.60;99.90
21778;DHT22;11050;52.222;20.916;2022-10-31T06:21:48;8.70;99.90
21778;DHT22;11050;52.222;20.916;2022-10-31T06:24:14;8.70;99.90
21778;DHT22;11050;52.222;20.916;2022-10-31T06:26:42;8.80;99.90
21778;DHT22;11050;52.222;20.916;2022-10-31T06:29:08;8.80;99.90
21778;DHT22;11050;52.222;20.916;2022-10-31T06:31:34;8.90;99.90
21778;DHT22;11050;52.222;20.916;2022-10-31T06:34:00;8.90;99.90
21778;DHT22;11050;52.222;20.916;2022-10-31T06:36:25;8.90;99.90
21778;DHT22;11050;52.222;20.916;2022-10-31T06:38:51;9.00;99.90
21778;DHT22;11050;52.222;20.916;2022-10-31T06:41:17;9.00;99.90
21778;DHT22;11050;52.222;20.916;2022-10-31T06:43:46;9.10;99.90
21778;DHT22;11050;52.222;20.916;2022-10-31T06:46:12;9.10;99.90
21778;DHT22;11050;52.222;20.916;2022-10-31T06:48:40;9.20;99.90
21778;DHT22;11050;52.222;20.916;2022-10-31T06:51:07;9.30;99.90
21778;DHT22;11050;52.222;20.916;2022-10-31T06:53:33;9.30;99.90
21778;DHT22;11050;52.222;20.916;2022-10-31T06:55:59;9.30;99.90
21778;DHT22;11050;52.222;20.916;2022-10-31T06:58:24;9.40;99.90
21778;DHT22;11050;52.222;20.916;2022-10-31T07:00:50;9.40;99.90
21778;DHT22;11050;52.222;20.916;2022-10-31T07:03:16;9.50;99.90
21778;DHT22;11050;52.222;20.916;2022-10-31T07:05:43;9.50;99.90
21778;DHT22;11050;52.222;20.916;2022-10-31T07:08:11;9.60;99.90
21778;DHT22;11050;52.222;20.916;2022-10-31T07:10:39;9.60;99.90
21778;DHT22;11050;52.222;20.916;2022-10-31T07:13:12;9.70;99.90
21778;DHT22;11050;52.222;20.916;2022-10-31T07:15:41;9.70;99.90
21778;DHT22;11050;52.222;20.916;2022-10-31T07:18:09;9.80;99.90
21778;DHT22;11050;52.222;20.916;2022-10-31T07:20:37;9.80;99.90
21778;DHT22;11050;52.222;20.916;2022-10-31T07:23:03;9.90;99.90
21778;DHT22;11050;52.222;20.916;2022-10-31T07:25:29;10.00;99.90
21778;DHT22;11050;52.222;20.916;2022-10-31T07:27:55;10.00;99.90
21778;DHT22;11050;52.222;20.916;2022-10-31T07:30:21;10.10;99.90
21778;DHT22;11050;52.222;20.916;2022-10-31T07:32:49;10.20;99.90
21778;DHT22;11050;52.222;20.916;2022-10-31T07:35:17;10.20;99.90
21778;DHT22;11050;52.222;20.916;2022-10-31T07:37:48;10.30;99.90
21778;DHT22;11050;52.222;20.916;2022-10-31T07:40:14;10.40;99.90
21778;DHT22;11050;52.222;20.916;2022-10-31T07:42:43;10.50;99.90
21778;DHT22;11050;52.222;20.916;2022-10-31T07:45:12;10.60;99.90
21778;DHT22;11050;52.222;20.916;2022-10-31T07:50:35;10.70;99.90
21778;DHT22;11050;52.222;20.916;2022-10-31T07:53:03;10.80;99.90
21778;DHT22;11050;52.222;20.916;2022-10-31T07:55:30;10.90;99.90
21778;DHT22;11050;52.222;20.916;2022-10-31T07:58:07;10.90;99.90
21778;DHT22;11050;52.222;20.916;2022-10-31T08:00:40;11.00;99.90
21778;DHT22;11050;52.222;20.916;2022-10-31T08:03:09;11.00;99.90
21778;DHT22;11050;52.222;20.916;2022-10-31T08:05:37;11.10;99.90
21778;DHT22;11050;52.222;20.916;2022-10-31T08:08:05;11.10;99.90
21778;DHT22;11050;52.222;20.916;2022-10-31T08:10:32;11.20;99.90
21778;DHT22;11050;52.222;20.916;2022-10-31T08:13:00;11.20;99.90
21778;DHT22;11050;52.222;20.916;2022-10-31T08:15:28;11.30;99.90
21778;DHT22;11050;52.222;20.916;2022-10-31T08:17:54;11.40;99.90
21778;DHT22;11050;52.222;20.916;2022-10-31T08:20:21;11.40;99.90
21778;DHT22;11050;52.222;20.916;2022-10-31T08:22:53;11.50;99.90
21778;DHT22;11050;52.222;20.916;2022-10-31T08:25:27;11.60;99.90
21778;DHT22;11050;52.222;20.916;2022-10-31T08:27:55;11.70;99.90
21778;DHT22;11050;52.222;20.916;2022-10-31T08:30:28;11.80;99.90
21778;DHT22;11050;52.222;20.916;2022-10-31T08:33:08;11.90;99.90
21778;DHT22;11050;52.222;20.916;2022-10-31T08:35:36;12.00;99.90
21778;DHT22;11050;52.222;20.916;2022-10-31T08:38:02;12.00;99.90
21778;DHT22;11050;52.222;20.916;2022-10-31T08:40:29;12.10;99.90
21778;DHT22;11050;52.222;20.916;2022-10-31T08:43:33;12.10;99.90
21778;DHT22;11050;52.222;20.916;2022-10-31T08:45:52;12.30;99.90
21778;DHT22;11050;52.222;20.916;2022-10-31T08:48:21;12.40;99.90
21778;DHT22;11050;52.222;20.916;2022-10-31T08:50:47;12.40;99.90
21778;DHT22;11050;52.222;20.916;2022-10-31T08:53:16;12.50;99.90
21778;DHT22;11050;52.222;20.916;2022-10-31T08:55:45;12.70;99.90
21778;DHT22;11050;52.222;20.916;2022-10-31T08:58:14;12.80;99.90
21778;DHT22;11050;52.222;20.916;2022-10-31T09:00:44;12.90;99.90
21778;DHT22;11050;52.222;20.916;2022-10-31T09:03:19;12.90;99.90
21778;DHT22;11050;52.222;20.916;2022-10-31T09:05:47;13.10;99.90
21778;DHT22;11050;52.222;20.916;2022-10-31T09:08:14;13.10;99.90
21778;DHT22;11050;52.222;20.916;2022-10-31T09:10:40;13.20;99.90
21778;DHT22;11050;52.222;20.916;2022-10-31T09:13:09;13.30;99.90
21778;DHT22;11050;52.222;20.916;2022-10-31T09:15:38;13.40;99.90
21778;DHT22;11050;52.222;20.916;2022-10-31T09:18:06;13.40;99.90
21778;DHT22;11050;52.222;20.916;2022-10-31T09:20:35;13.50;99.90
21778;DHT22;11050;52.222;20.916;2022-10-31T09:23:04;13.50;99.90
21778;DHT22;11050;52.222;20.916;2022-10-31T09:25:42;13.60;99.90
21778;DHT22;11050;52.222;20.916;2022-10-31T09:28:11;13.70;99.90
21778;DHT22;11050;52.222;20.916;2022-10-31T09:30:39;13.80;99.90
21778;DHT22;11050;52.222;20.916;2022-10-31T09:33:08;13.80;99.90
21778;DHT22;11050;52.222;20.916;2022-10-31T09:35:35;13.90;99.90
21778;DHT22;11050;52.222;20.916;2022-10-31T09:38:08;14.00;99.90
21778;DHT22;11050;52.222;20.916;2022-10-31T09:46:34;14.30;99.90
21778;DHT22;11050;52.222;20.916;2022-10-31T09:52:20;14.60;99.90
21778;DHT22;11050;52.222;20.916;2022-10-31T09:57:39;14.80;99.90
21778;DHT22;11050;52.222;20.916;2022-10-31T10:00:15;14.90;99.90
21778;DHT22;11050;52.222;20.916;2022-10-31T10:02:48;15.00;99.90
21778;DHT22;11050;52.222;20.916;2022-10-31T10:05:27;15.10;99.90
21778;DHT22;11050;52.222;20.916;2022-10-31T10:08:02;15.20;99.90
21778;DHT22;11050;52.222;20.916;2022-10-31T10:16:42;15.50;99.90
21778;DHT22;11050;52.222;20.916;2022-10-31T10:49:06;17.40;99.90
21778;DHT22;11050;52.222;20.916;2022-10-31T10:51:45;17.60;99.90
21778;DHT22;11050;52.222;20.916;2022-10-31T10:59:54;18.20;99.90
21778;DHT22;11050;52.222;20.916;2022-10-31T11:02:24;18.40;99.90
21778;DHT22;11050;52.222;20.916;2022-10-31T11:04:59;18.50;99.90
21778;DHT22;11050;52.222;20.916;2022-10-31T11:07:38;18.70;99.90
21778;DHT22;11050;52.222;20.916;2022-10-31T11:10:06;18.90;99.90
21778;DHT22;11050;52.222;20.916;2022-10-31T11:12:40;19.10;99.90
21778;DHT22;11050;52.222;20.916;2022-10-31T11:15:21;19.20;99.90
21778;DHT22;11050;52.222;20.916;2022-10-31T11:17:55;19.40;99.90
21778;DHT22;11050;52.222;20.916;2022-10-31T11:20:28;19.60;99.90
21778;DHT22;11050;52.222;20.916;2022-10-31T11:23:21;19.70;99.90
21778;DHT22;11050;52.222;20.916;2022-10-31T11:28:26;20.10;99.90
21778;DHT22;11050;52.222;20.916;2022-10-31T11:30:57;20.20;99.90
21778;DHT22;11050;52.222;20.916;2022-10-31T11:36:21;20.50;99.90
21778;DHT22;11050;52.222;20.916;2022-10-31T11:38:50;20.70;99.90
21778;DHT22;11050;52.222;20.916;2022-10-31T11:41:26;20.90;99.90
21778;DHT22;11050;52.222;20.916;2022-10-31T11:44:18;21.00;99.90
21778;DHT22;11050;52.222;20.916;2022-10-31T11:46:57;21.10;99.90
21778;DHT22;11050;52.222;20.916;2022-10-31T11:49:35;21.10;99.90
21778;DHT22;11050;52.222;20.916;2022-10-31T11:52:24;21.30;99.90
21778;DHT22;11050;52.222;20.916;2022-10-31T12:00:00;21.80;99.90
21778;DHT22;11050;52.222;20.916;2022-10-31T12:02:28;21.90;99.90
21778;DHT22;11050;52.222;20.916;2022-10-31T12:05:40;22.10;99.90
21778;DHT22;11050;52.222;20.916;2022-10-31T12:07:50;22.20;99.90
21778;DHT22;11050;52.222;20.916;2022-10-31T12:10:16;22.40;99.90
21778;DHT22;11050;52.222;20.916;2022-10-31T12:15:42;22.40;98.30
21778;DHT22;11050;52.222;20.916;2022-10-31T12:30:11;22.10;99.90
21778;DHT22;11050;52.222;20.916;2022-10-31T12:36:25;22.10;99.90
21778;DHT22;11050;52.222;20.916;2022-10-31T12:39:06;22.20;99.90
21778;DHT22;11050;52.222;20.916;2022-10-31T12:42:14;22.20;99.90
21778;DHT22;11050;52.222;20.916;2022-10-31T13:05:05;21.80;99.90
21778;DHT22;11050;52.222;20.916;2022-10-31T13:07:50;21.70;99.90
21778;DHT22;11050;52.222;20.916;2022-10-31T13:10:36;21.70;99.90
21778;DHT22;11050;52.222;20.916;2022-10-31T13:13:15;21.80;99.90
21778;DHT22;11050;52.222;20.916;2022-10-31T13:15:49;21.90;99.90
21778;DHT22;11050;52.222;20.916;2022-10-31T13:18:30;21.90;99.90
21778;DHT22;11050;52.222;20.916;2022-10-31T13:20:59;22.00;99.90
21778;DHT22;11050;52.222;20.916;2022-10-31T13:23:34;22.10;99.90
21778;DHT22;11050;52.222;20.916;2022-10-31T13:26:13;22.10;99.90
21778;DHT22;11050;52.222;20.916;2022-10-31T13:28:52;22.00;99.90
21778;DHT22;11050;52.222;20.916;2022-10-31T13:31:25;21.80;99.90
21778;DHT22;11050;52.222;20.916;2022-10-31T13:45:51;20.90;99.90
21778;DHT22;11050;52.222;20.916;2022-10-31T13:48:36;20.80;99.90
21778;DHT22;11050;52.222;20.916;2022-10-31T13:51:09;20.60;99.90
21778;DHT22;11050;52.222;20.916;2022-10-31T13:53:58;20.60;99.90
21778;DHT22;11050;52.222;20.916;2022-10-31T13:56:31;20.50;99.90
21778;DHT22;11050;52.222;20.916;2022-10-31T14:01:57;20.10;99.90
21778;DHT22;11050;52.222;20.916;2022-10-31T14:07:14;19.80;99.90
21778;DHT22;11050;52.222;20.916;2022-10-31T14:09:55;19.60;99.90
21778;DHT22;11050;52.222;20.916;2022-10-31T14:12:38;19.40;99.90
21778;DHT22;11050;52.222;20.916;2022-10-31T14:15:19;19.20;99.90
21778;DHT22;11050;52.222;20.916;2022-10-31T14:28:52;18.20;99.90
21778;DHT22;11050;52.222;20.916;2022-10-31T14:31:44;18.10;99.90
21778;DHT22;11050;52.222;20.916;2022-10-31T14:34:33;17.80;99.90
21778;DHT22;11050;52.222;20.916;2022-10-31T14:43:40;16.70;99.90
21778;DHT22;11050;52.222;20.916;2022-10-31T14:51:55;15.60;99.90
21778;DHT22;11050;52.222;20.916;2022-10-31T14:54:43;15.30;99.90
21778;DHT22;11050;52.222;20.916;2022-10-31T14:57:18;15.10;99.90
21778;DHT22;11050;52.222;20.916;2022-10-31T15:00:12;14.80;99.90
21778;DHT22;11050;52.222;20.916;2022-10-31T15:03:16;14.60;99.90
21778;DHT22;11050;52.222;20.916;2022-10-31T15:05:50;14.40;99.90
21778;DHT22;11050;52.222;20.916;2022-10-31T15:08:34;14.30;99.90
21778;DHT22;11050;52.222;20.916;2022-10-31T15:11:15;14.20;99.90
21778;DHT22;11050;52.222;20.916;2022-10-31T15:13:54;14.00;99.90
21778;DHT22;11050;52.222;20.916;2022-10-31T15:16:33;13.90;99.90
21778;DHT22;11050;52.222;20.916;2022-10-31T15:19:04;13.90;99.90
21778;DHT22;11050;52.222;20.916;2022-10-31T15:21:33;13.80;99.90
21778;DHT22;11050;52.222;20.916;2022-10-31T15:24:02;13.70;99.90
21778;DHT22;11050;52.222;20.916;2022-10-31T15:26:39;13.60;99.90
21778;DHT22;11050;52.222;20.916;2022-10-31T15:29:12;13.60;99.90
21778;DHT22;11050;52.222;20.916;2022-10-31T15:31:53;13.50;99.90
21778;DHT22;11050;52.222;20.916;2022-10-31T15:37:04;13.40;99.90
21778;DHT22;11050;52.222;20.916;2022-10-31T15:39:36;13.30;99.90
21778;DHT22;11050;52.222;20.916;2022-10-31T15:42:01;13.30;99.90
21778;DHT22;11050;52.222;20.916;2022-10-31T15:44:36;13.20;99.90
21778;DHT22;11050;52.222;20.916;2022-10-31T15:47:15;13.20;99.90
21778;DHT22;11050;52.222;20.916;2022-10-31T15:49:54;13.10;99.90
21778;DHT22;11050;52.222;20.916;2022-10-31T15:52:31;13.10;99.90
21778;DHT22;11050;52.222;20.916;2022-10-31T15:55:24;13.00;99.90
21778;DHT22;11050;52.222;20.916;2022-10-31T15:57:56;13.00;99.90
21778;DHT22;11050;52.222;20.916;2022-10-31T16:00:29;12.90;99.90
21778;DHT22;11050;52.222;20.916;2022-10-31T16:13:53;12.80;99.90
21778;DHT22;11050;52.222;20.916;2022-10-31T16:16:31;12.70;99.90
21778;DHT22;11050;52.222;20.916;2022-10-31T16:19:00;12.70;99.90
21778;DHT22;11050;52.222;20.916;2022-10-31T16:21:36;12.70;99.90
21778;DHT22;11050;52.222;20.916;2022-10-31T16:24:18;12.60;99.90
21778;DHT22;11050;52.222;20.916;2022-10-31T16:26:49;12.60;99.90
21778;DHT22;11050;52.222;20.916;2022-10-31T16:29:45;12.60;99.90
21778;DHT22;11050;52.222;20.916;2022-10-31T16:37:41;12.60;99.90
21778;DHT22;11050;52.222;20.916;2022-10-31T16:40:12;12.70;99.90
21778;DHT22;11050;52.222;20.916;2022-10-31T16:42:39;12.60;99.90
21778;DHT22;11050;52.222;20.916;2022-10-31T16:45:07;12.70;99.90
21778;DHT22;11050;52.222;20.916;2022-10-31T16:47:38;12.60;99.90
21778;DHT22;11050;52.222;20.916;2022-10-31T16:50:10;12.70;99.90
21778;DHT22;11050;52.222;20.916;2022-10-31T16:52:38;12.70;99.90
21778;DHT22;11050;52.222;20.916;2022-10-31T16:55:05;12.70;99.90
21778;DHT22;11050;52.222;20.916;2022-10-31T16:57:31;12.70;99.90
21778;DHT22;11050;52.222;20.916;2022-10-31T16:59:57;12.70;99.90
21778;DHT22;11050;52.222;20.916;2022-10-31T17:02:23;12.70;99.90
21778;DHT22;11050;52.222;20.916;2022-10-31T17:04:49;12.70;99.90
21778;DHT22;11050;52.222;20.916;2022-10-31T17:07:15;12.70;99.90
21778;DHT22;11050;52.222;20.916;2022-10-31T17:09:40;12.70;99.90
21778;DHT22;11050;52.222;20.916;2022-10-31T17:12:09;12.70;99.90
21778;DHT22;11050;52.222;20.916;2022-10-31T17:14:43;12.70;99.90
21778;DHT22;11050;52.222;20.916;2022-10-31T17:17:13;12.70;99.90
21778;DHT22;11050;52.222;20.916;2022-10-31T17:19:39;12.70;99.90
21778;DHT22;11050;52.222;20.916;2022-10-31T17:22:05;12.70;99.90
21778;DHT22;11050;52.222;20.916;2022-10-31T17:24:31;12.70;99.90
21778;DHT22;11050;52.222;20.916;2022-10-31T17:26:57;12.80;99.90
21778;DHT22;11050;52.222;20.916;2022-10-31T17:29:22;12.70;99.90
21778;DHT22;11050;52.222;20.916;2022-10-31T17:31:48;12.70;99.90
21778;DHT22;11050;52.222;20.916;2022-10-31T17:34:14;12.80;99.90
21778;DHT22;11050;52.222;20.916;2022-10-31T17:36:40;12.70;99.90
21778;DHT22;11050;52.222;20.916;2022-10-31T17:39:05;12.70;99.90
21778;DHT22;11050;52.222;20.916;2022-10-31T17:41:33;12.70;99.90
21778;DHT22;11050;52.222;20.916;2022-10-31T17:43:59;12.80;99.90
21778;DHT22;11050;52.222;20.916;2022-10-31T17:46:25;12.70;99.90
21778;DHT22;11050;52.222;20.916;2022-10-31T17:48:52;12.80;99.90
21778;DHT22;11050;52.222;20.916;2022-10-31T17:51:18;12.80;99.90
21778;DHT22;11050;52.222;20.916;2022-10-31T17:53:44;12.80;99.90
21778;DHT22;11050;52.222;20.916;2022-10-31T17:56:11;12.80;99.90
21778;DHT22;11050;52.222;20.916;2022-10-31T17:58:37;12.80;99.90
21778;DHT22;11050;52.222;20.916;2022-10-31T18:01:08;12.80;99.90
21778;DHT22;11050;52.222;20.916;2022-10-31T18:03:36;12.80;99.90
21778;DHT22;11050;52.222;20.916;2022-10-31T18:06:02;12.80;99.90
21778;DHT22;11050;52.222;20.916;2022-10-31T18:08:30;12.80;99.90
21778;DHT22;11050;52.222;20.916;2022-10-31T18:11:08;12.80;99.90
21778;DHT22;11050;52.222;20.916;2022-10-31T18:13:45;12.80;99.90
21778;DHT22;11050;52.222;20.916;2022-10-31T18:16:13;12.80;99.90
21778;DHT22;11050;52.222;20.916;2022-10-31T18:18:41;12.80;99.90
21778;DHT22;11050;52.222;20.916;2022-10-31T18:21:07;12.80;99.90
21778;DHT22;11050;52.222;20.916;2022-10-31T18:23:33;12.80;99.90
21778;DHT22;11050;52.222;20.916;2022-10-31T18:25:58;12.80;99.90
21778;DHT22;11050;52.222;20.916;2022-10-31T18:28:24;12.70;99.90
21778;DHT22;11050;52.222;20.916;2022-10-31T18:30:50;12.70;99.90
21778;DHT22;11050;52.222;20.916;2022-10-31T18:33:16;12.70;99.90
21778;DHT22;11050;52.222;20.916;2022-10-31T18:35:42;12.70;99.90
21778;DHT22;11050;52.222;20.916;2022-10-31T18:38:07;12.70;99.90
21778;DHT22;11050;52.222;20.916;2022-10-31T18:40:34;12.70;99.90
21778;DHT22;11050;52.222;20.916;2022-10-31T18:43:00;12.70;99.90
21778;DHT22;11050;52.222;20.916;2022-10-31T18:45:27;12.60;99.90
21778;DHT22;11050;52.222;20.916;2022-10-31T18:47:53;12.60;99.90
21778;DHT22;11050;52.222;20.916;2022-10-31T18:50:19;12.60;99.90
21778;DHT22;11050;52.222;20.916;2022-10-31T18:52:45;12.60;99.90
21778;DHT22;11050;52.222;20.916;2022-10-31T18:55:11;12.60;99.90
21778;DHT22;11050;52.222;20.916;2022-10-31T18:57:37;12.60;99.90
21778;DHT22;11050;52.222;20.916;2022-10-31T19:00:04;12.60;99.90
21778;DHT22;11050;52.222;20.916;2022-10-31T19:02:31;12.60;99.90
21778;DHT22;11050;52.222;20.916;2022-10-31T19:04:57;12.60;99.90
21778;DHT22;11050;52.222;20.916;2022-10-31T19:07:22;12.60;99.90
21778;DHT22;11050;52.222;20.916;2022-10-31T19:09:48;12.60;99.90
21778;DHT22;11050;52.222;20.916;2022-10-31T19:12:14;12.60;99.90
21778;DHT22;11050;52.222;20.916;2022-10-31T19:14:40;12.60;99.90
21778;DHT22;11050;52.222;20.916;2022-10-31T19:17:06;12.60;99.90